createdAt,value
2023-03-19T00:00:31.531Z,24.30
2023-03-19T00:03:19.189Z,27.40
2023-03-19T00:05:53.806Z,24.80
2023-03-19T00:08:22.719Z,23.70
2023-03-19T00:10:51.092Z,23.80
2023-03-19T00:13:19.375Z,23.80
2023-03-19T00:15:49.966Z,23.00
2023-03-19T00:18:17.628Z,23.10
2023-03-19T00:20:45.781Z,23.40
2023-03-19T00:23:13.402Z,23.70
2023-03-19T00:25:41.464Z,22.00
2023-03-19T00:28:09.932Z,21.70
2023-03-19T00:30:37.649Z,22.50
2023-03-19T00:33:05.427Z,21.40
2023-03-19T00:35:34.084Z,22.20
2023-03-19T00:38:02.213Z,21.00
2023-03-19T00:40:32.677Z,20.40
2023-03-19T00:43:00.330Z,21.60
2023-03-19T00:45:30.674Z,21.70
2023-03-19T00:47:58.961Z,21.70
2023-03-19T00:50:27.122Z,21.40
2023-03-19T00:52:54.837Z,20.90
2023-03-19T00:55:22.818Z,21.90
2023-03-19T00:57:50.536Z,22.40
2023-03-19T01:00:19.435Z,21.90
2023-03-19T01:02:47.376Z,21.10
2023-03-19T01:05:15.873Z,21.00
2023-03-19T01:07:43.503Z,21.40
2023-03-19T01:10:11.415Z,21.60
2023-03-19T01:12:39.082Z,20.60
2023-03-19T01:15:08.783Z,20.30
2023-03-19T01:17:36.460Z,21.10
2023-03-19T01:20:08.833Z,20.90
2023-03-19T01:22:37.610Z,21.20
2023-03-19T01:25:05.903Z,21.80
2023-03-19T01:27:33.656Z,22.20
2023-03-19T01:30:02.024Z,21.90
2023-03-19T01:32:58.743Z,22.10
2023-03-19T01:35:39.485Z,22.70
2023-03-19T01:38:08.074Z,21.70
2023-03-19T01:40:36.720Z,23.30
2023-03-19T01:43:28.990Z,23.00
2023-03-19T01:46:08.572Z,23.80
2023-03-19T01:48:42.260Z,21.80
2023-03-19T01:51:17.328Z,23.80
2023-03-19T01:54:01.253Z,22.90
2023-03-19T01:56:37.067Z,23.30
2023-03-19T01:59:21.279Z,21.60
2023-03-19T02:02:17.583Z,22.00
2023-03-19T02:04:46.887Z,21.90
2023-03-19T02:07:14.973Z,21.50
2023-03-19T02:09:43.053Z,22.50
2023-03-19T02:12:11.701Z,20.40
2023-03-19T02:14:39.375Z,21.40
2023-03-19T02:17:08.596Z,20.20
2023-03-19T02:19:55.741Z,21.10
2023-03-19T02:22:27.092Z,21.10
2023-03-19T02:25:07.058Z,21.10
2023-03-19T02:27:35.610Z,20.40
2023-03-19T02:30:27.685Z,20.30
2023-03-19T02:32:56.292Z,20.40
2023-03-19T02:35:26.258Z,19.50
2023-03-19T02:37:54.130Z,19.50
2023-03-19T02:40:25.062Z,19.10
2023-03-19T02:42:52.672Z,19.40
2023-03-19T02:45:21.360Z,19.80
2023-03-19T02:47:49.034Z,21.20
2023-03-19T02:50:16.679Z,19.30
2023-03-19T02:52:44.306Z,18.90
2023-03-19T02:55:11.965Z,18.90
2023-03-19T02:57:39.574Z,18.40
2023-03-19T03:00:07.955Z,19.10
2023-03-19T03:02:35.880Z,20.50
2023-03-19T03:05:03.993Z,19.90
2023-03-19T03:07:31.664Z,20.00
2023-03-19T03:09:59.937Z,19.30
2023-03-19T03:12:27.565Z,18.60
2023-03-19T03:14:55.165Z,20.00
2023-03-19T03:17:23.280Z,20.50
2023-03-19T03:19:50.908Z,19.80
2023-03-19T03:22:18.917Z,21.90
2023-03-19T03:24:46.527Z,20.60
2023-03-19T03:27:14.166Z,22.20
2023-03-19T03:29:42.022Z,22.50
2023-03-19T03:32:09.789Z,22.30
2023-03-19T03:34:37.460Z,22.30
2023-03-19T03:37:05.328Z,20.80
2023-03-19T03:39:32.964Z,21.90
2023-03-19T03:42:00.976Z,22.10
2023-03-19T03:44:31.086Z,22.80
2023-03-19T03:46:58.815Z,21.90
2023-03-19T03:49:26.412Z,22.00
2023-03-19T03:51:54.002Z,22.60
2023-03-19T03:54:21.703Z,20.80
2023-03-19T03:56:50.658Z,20.60
2023-03-19T03:59:18.342Z,19.80
2023-03-19T04:01:46.030Z,22.30
2023-03-19T04:04:13.741Z,21.60
2023-03-19T04:06:41.489Z,20.40
2023-03-19T04:09:14.265Z,20.40
2023-03-19T04:11:42.268Z,19.90
2023-03-19T04:14:09.949Z,20.40
2023-03-19T04:16:38.286Z,19.80
2023-03-19T04:19:07.740Z,20.10
2023-03-19T04:21:35.745Z,19.40
2023-03-19T04:24:04.506Z,19.00
2023-03-19T04:26:32.170Z,19.10
2023-03-19T04:28:59.789Z,19.00
2023-03-19T04:31:28.448Z,18.80
2023-03-19T04:33:56.157Z,19.20
2023-03-19T04:36:24.259Z,19.00
2023-03-19T04:38:52.648Z,19.40
2023-03-19T04:41:20.780Z,18.50
2023-03-19T04:44:01.892Z,18.50
2023-03-19T04:46:30.020Z,17.90
2023-03-19T04:48:57.684Z,18.10
2023-03-19T04:51:25.352Z,16.90
2023-03-19T04:53:53.091Z,18.00
2023-03-19T04:56:20.939Z,16.30
2023-03-19T04:58:48.601Z,17.30
2023-03-19T05:01:17.298Z,17.40
2023-03-19T05:03:59.183Z,17.80
2023-03-19T05:06:27.248Z,15.80
2023-03-19T05:08:55.715Z,17.00
2023-03-19T05:11:23.433Z,17.10
2023-03-19T05:13:59.234Z,16.60
2023-03-19T05:16:30.726Z,17.10
2023-03-19T05:18:58.856Z,16.30
2023-03-19T05:21:26.962Z,16.50
2023-03-19T05:23:57.214Z,16.90
2023-03-19T05:26:25.770Z,16.70
2023-03-19T05:29:14.734Z,16.80
2023-03-19T05:31:52.725Z,17.40
2023-03-19T05:34:21.380Z,17.40
2023-03-19T05:36:50.018Z,17.70
2023-03-19T05:39:19.709Z,17.90
2023-03-19T05:41:47.594Z,17.60
2023-03-19T05:44:19.581Z,18.00
2023-03-19T05:47:13.502Z,18.60
2023-03-19T05:49:42.644Z,19.40
2023-03-19T05:52:10.482Z,18.30
2023-03-19T05:54:38.332Z,17.50
2023-03-19T05:57:16.276Z,18.10
2023-03-19T05:59:49.840Z,18.70
2023-03-19T06:02:43.143Z,19.20
2023-03-19T06:05:29.581Z,18.60
2023-03-19T06:08:01.366Z,17.80
2023-03-19T06:10:36.432Z,17.90
2023-03-19T06:13:08.015Z,19.00
2023-03-19T06:16:05.087Z,18.40
2023-03-19T06:18:36.613Z,18.00
2023-03-19T06:21:08.905Z,18.40
2023-03-19T06:23:36.764Z,17.40
2023-03-19T06:26:06.073Z,17.40
2023-03-19T06:28:40.328Z,17.30
2023-03-19T06:31:09.144Z,17.90
2023-03-19T06:33:56.380Z,17.10
2023-03-19T06:36:27.047Z,16.90
2023-03-19T06:38:55.113Z,17.50
2023-03-19T06:41:24.756Z,17.80
2023-03-19T06:43:53.343Z,16.30
2023-03-19T06:46:21.245Z,16.40
2023-03-19T06:48:49.033Z,16.50
2023-03-19T06:51:16.841Z,16.90
2023-03-19T06:53:44.809Z,16.60
2023-03-19T06:56:12.765Z,16.20
2023-03-19T06:58:40.352Z,16.60
2023-03-19T07:01:09.035Z,17.60
2023-03-19T07:03:36.933Z,15.60
2023-03-19T07:06:05.111Z,16.90
2023-03-19T07:08:33.323Z,17.20
2023-03-19T07:11:05.930Z,17.00
2023-03-19T07:13:34.192Z,17.20
2023-03-19T07:16:02.257Z,16.90
2023-03-19T07:18:30.277Z,18.10
2023-03-19T07:20:58.209Z,17.70
2023-03-19T07:23:26.071Z,19.50
2023-03-19T07:25:53.854Z,17.20
2023-03-19T07:28:21.959Z,18.80
2023-03-19T07:30:53.139Z,18.90
2023-03-19T07:33:22.057Z,18.70
2023-03-19T07:35:49.797Z,17.90
2023-03-19T07:38:18.161Z,18.20
2023-03-19T07:41:00.952Z,20.80
2023-03-19T07:43:31.544Z,18.00
2023-03-19T07:45:59.931Z,19.20
2023-03-19T07:48:27.720Z,15.70
2023-03-19T07:50:55.912Z,17.50
2023-03-19T07:53:23.875Z,17.60
2023-03-19T07:55:51.485Z,17.00
2023-03-19T07:58:19.222Z,16.50
2023-03-19T08:00:47.438Z,16.90
2023-03-19T08:03:16.005Z,17.90
2023-03-19T08:05:43.631Z,16.50
2023-03-19T08:08:11.591Z,17.00
2023-03-19T08:10:39.457Z,17.30
2023-03-19T08:13:07.626Z,16.90
2023-03-19T08:15:35.239Z,16.90
2023-03-19T08:18:04.970Z,17.50
2023-03-19T08:20:33.439Z,18.00
2023-03-19T08:23:01.280Z,16.50
2023-03-19T08:25:32.490Z,18.70
2023-03-19T08:28:01.104Z,16.50
2023-03-19T08:30:29.037Z,16.50
2023-03-19T08:32:56.979Z,18.50
2023-03-19T08:35:27.156Z,15.60
2023-03-19T08:37:55.662Z,17.30
2023-03-19T08:40:24.102Z,15.80
2023-03-19T08:42:52.034Z,17.50
2023-03-19T08:45:20.495Z,17.00
2023-03-19T08:47:48.604Z,15.20
2023-03-19T08:50:17.008Z,15.50
2023-03-19T08:52:44.867Z,14.50
2023-03-19T08:55:12.674Z,13.90
2023-03-19T08:57:40.437Z,14.80
2023-03-19T09:00:10.466Z,15.30
2023-03-19T09:02:38.691Z,15.40
2023-03-19T09:05:07.385Z,14.70
2023-03-19T09:07:35.281Z,15.30
2023-03-19T09:10:03.089Z,13.90
2023-03-19T09:12:30.951Z,13.70
2023-03-19T09:14:58.538Z,14.80
2023-03-19T09:17:26.134Z,14.30
2023-03-19T09:19:53.760Z,14.70
2023-03-19T09:22:21.770Z,15.10
2023-03-19T09:24:49.630Z,14.00
2023-03-19T09:27:17.319Z,12.80
2023-03-19T09:29:44.951Z,14.70
2023-03-19T09:32:12.647Z,15.10
2023-03-19T09:34:40.797Z,14.00
2023-03-19T09:37:08.540Z,14.80
2023-03-19T09:39:36.199Z,14.00
2023-03-19T09:42:31.933Z,12.70
2023-03-19T09:44:59.603Z,20.10
2023-03-19T09:47:33.241Z,12.70
2023-03-19T09:50:12.427Z,14.50
2023-03-19T09:52:58.684Z,14.10
2023-03-19T09:55:41.300Z,14.70
2023-03-19T09:58:14.652Z,14.70
2023-03-19T10:00:43.191Z,18.00
2023-03-19T10:03:14.392Z,13.50
2023-03-19T10:05:45.521Z,13.60
2023-03-19T10:08:25.857Z,13.20
2023-03-19T10:11:07.561Z,14.70
2023-03-19T10:13:43.693Z,13.60
2023-03-19T10:16:16.167Z,13.40
2023-03-19T10:18:48.475Z,12.70
2023-03-19T10:21:20.505Z,12.70
2023-03-19T10:23:56.063Z,12.60
2023-03-19T10:26:30.006Z,12.40
2023-03-19T10:28:59.971Z,13.30
2023-03-19T10:31:29.802Z,13.20
2023-03-19T10:34:05.128Z,13.30
2023-03-19T10:36:36.025Z,12.60
2023-03-19T10:39:06.956Z,12.40
2023-03-19T10:41:40.960Z,12.50
2023-03-19T10:44:17.485Z,12.60
2023-03-19T10:46:45.068Z,12.30
2023-03-19T10:49:13.709Z,12.00
2023-03-19T10:51:45.408Z,13.20
2023-03-19T10:54:24.170Z,11.40
2023-03-19T10:56:55.929Z,12.10
2023-03-19T10:59:26.984Z,11.90
2023-03-19T11:01:59.544Z,11.80
2023-03-19T11:04:29.558Z,12.20
2023-03-19T11:07:03.312Z,12.00
2023-03-19T11:09:36.351Z,11.10
2023-03-19T11:12:23.061Z,11.30
2023-03-19T11:14:56.506Z,10.60
2023-03-19T11:17:38.797Z,11.10
2023-03-19T11:20:15.842Z,11.70
2023-03-19T11:22:44.267Z,11.20
2023-03-19T11:25:19.018Z,11.60
2023-03-19T11:28:14.556Z,12.30
2023-03-19T11:31:19.841Z,11.40
2023-03-19T11:34:09.959Z,12.10
2023-03-19T11:36:56.860Z,11.30
2023-03-19T11:39:27.790Z,11.70
2023-03-19T11:42:23.820Z,10.80
2023-03-19T11:45:14.932Z,13.90
2023-03-19T11:48:21.562Z,11.60
2023-03-19T11:51:01.340Z,11.90
2023-03-19T11:53:38.248Z,11.30
2023-03-19T11:56:37.783Z,10.80
2023-03-19T11:59:45.037Z,10.30
2023-03-19T12:02:18.900Z,10.30
2023-03-19T12:05:00.334Z,9.30
2023-03-19T12:08:06.372Z,9.60
2023-03-19T12:10:40.379Z,10.30
2023-03-19T12:13:19.618Z,9.60
2023-03-19T12:15:58.716Z,9.10
2023-03-19T12:18:48.917Z,9.40
2023-03-19T12:21:29.375Z,9.90
2023-03-19T12:24:18.474Z,8.70
2023-03-19T12:26:54.892Z,9.10
2023-03-19T12:29:54.544Z,9.20
2023-03-19T12:32:47.116Z,9.30
2023-03-19T12:35:17.971Z,9.50
2023-03-19T12:37:55.314Z,9.40
2023-03-19T12:40:43.781Z,9.30
2023-03-19T12:43:28.213Z,9.90
2023-03-19T12:46:15.598Z,9.60
2023-03-19T12:48:46.617Z,9.00
2023-03-19T12:51:20.410Z,9.40
2023-03-19T12:53:56.363Z,9.50
2023-03-19T12:56:32.677Z,9.90
2023-03-19T12:59:09.922Z,9.60
2023-03-19T13:01:42.506Z,9.90
2023-03-19T13:04:18.386Z,9.50
2023-03-19T13:07:09.101Z,10.20
2023-03-19T13:09:49.160Z,9.60
2023-03-19T13:12:21.671Z,10.00
2023-03-19T13:15:11.949Z,8.90
2023-03-19T13:18:00.879Z,9.70
2023-03-19T13:20:53.845Z,9.90
2023-03-19T13:23:29.225Z,9.60
2023-03-19T13:26:01.801Z,9.80
2023-03-19T13:28:33.531Z,9.40
2023-03-19T13:31:20.855Z,9.00
2023-03-19T13:34:18.303Z,9.30
2023-03-19T13:37:01.466Z,10.30
2023-03-19T13:39:32.443Z,9.00
2023-03-19T13:42:10.214Z,8.70
2023-03-19T13:44:57.216Z,9.90
2023-03-19T13:47:36.479Z,10.30
2023-03-19T13:50:16.182Z,9.50
2023-03-19T13:52:44.852Z,10.10
2023-03-19T13:55:24.821Z,10.10
2023-03-19T13:58:37.577Z,10.10
2023-03-19T14:01:07.531Z,10.30
2023-03-19T14:03:56.328Z,10.60
2023-03-19T14:06:40.232Z,11.10
2023-03-19T14:09:32.667Z,10.40
2023-03-19T14:12:22.613Z,10.80
2023-03-19T14:15:05.488Z,9.50
2023-03-19T14:17:35.282Z,9.70
2023-03-19T14:20:12.658Z,10.60
2023-03-19T14:22:56.726Z,10.20
2023-03-19T14:25:27.148Z,10.20
2023-03-19T14:27:59.411Z,10.50
2023-03-19T14:30:32.915Z,10.00
2023-03-19T14:33:04.467Z,10.20
2023-03-19T14:35:39.276Z,9.60
2023-03-19T14:38:15.641Z,9.50
2023-03-19T14:40:47.410Z,9.60
2023-03-19T14:43:34.721Z,9.90
2023-03-19T14:46:04.326Z,10.10
2023-03-19T14:48:56.735Z,10.40
2023-03-19T14:51:54.614Z,9.90
2023-03-19T14:54:34.885Z,10.00
2023-03-19T14:57:16.817Z,9.90
2023-03-19T14:59:44.495Z,9.90
2023-03-19T15:02:47.759Z,10.90
2023-03-19T15:05:30.172Z,11.00
2023-03-19T15:08:01.829Z,10.70
2023-03-19T15:10:34.912Z,11.10
2023-03-19T15:13:18.540Z,10.80
2023-03-19T15:16:03.049Z,11.20
2023-03-19T15:18:30.968Z,10.50
2023-03-19T15:20:58.799Z,11.30
2023-03-19T15:23:28.605Z,9.90
2023-03-19T15:26:01.882Z,10.20
2023-03-19T15:28:33.039Z,10.20
2023-03-19T15:31:21.878Z,9.50
2023-03-19T15:33:52.627Z,9.00
2023-03-19T15:36:31.543Z,10.30
2023-03-19T15:39:06.749Z,10.10
2023-03-19T15:41:40.289Z,10.60
2023-03-19T15:44:11.702Z,9.80
2023-03-19T15:46:41.121Z,10.30
2023-03-19T15:49:12.766Z,10.00
2023-03-19T15:51:41.480Z,9.30
2023-03-19T15:54:09.417Z,10.30
2023-03-19T15:56:37.161Z,9.80
2023-03-19T15:59:04.876Z,9.80
2023-03-19T16:01:33.316Z,9.20
2023-03-19T16:04:04.104Z,9.40
2023-03-19T16:06:36.478Z,9.90
2023-03-19T16:09:24.038Z,10.00
2023-03-19T16:11:52.566Z,10.10
2023-03-19T16:14:40.817Z,9.60
2023-03-19T16:17:14.244Z,9.90
2023-03-19T16:19:56.448Z,9.80
2023-03-19T16:22:28.032Z,11.20
2023-03-19T16:24:56.232Z,10.00
2023-03-19T16:27:51.458Z,9.80
2023-03-19T16:30:24.315Z,10.50
2023-03-19T16:33:03.256Z,10.10
2023-03-19T16:35:33.305Z,12.50
2023-03-19T16:38:14.876Z,10.20
2023-03-19T16:40:48.282Z,10.30
2023-03-19T16:43:22.791Z,10.40
2023-03-19T16:45:52.454Z,15.60
2023-03-19T16:48:20.344Z,16.70
2023-03-19T16:50:48.193Z,16.20
2023-03-19T16:53:24.748Z,16.70
2023-03-19T16:55:53.829Z,24.00
2023-03-19T16:58:42.552Z,42.70
2023-03-19T17:01:16.500Z,72.80
2023-03-19T17:03:45.753Z,39.70
2023-03-19T17:06:14.060Z,98.00
2023-03-19T17:08:41.959Z,71.50
2023-03-19T17:11:18.423Z,63.00
2023-03-19T17:13:46.333Z,64.50
2023-03-19T17:16:14.681Z,49.50
2023-03-19T17:18:43.312Z,35.70
2023-03-19T17:21:31.650Z,34.10
2023-03-19T17:24:21.690Z,34.40
2023-03-19T17:26:49.563Z,35.90
2023-03-19T17:29:20.135Z,40.90
2023-03-19T17:31:47.975Z,38.60
2023-03-19T17:34:25.400Z,36.90
2023-03-19T17:36:59.213Z,32.90
2023-03-19T17:39:29.942Z,32.90
2023-03-19T17:41:57.701Z,29.70
2023-03-19T17:44:25.876Z,30.80
2023-03-19T17:46:54.854Z,27.60
2023-03-19T17:49:31.670Z,24.30
2023-03-19T17:51:59.871Z,24.90
2023-03-19T17:54:27.907Z,24.70
2023-03-19T17:56:55.936Z,26.40
2023-03-19T17:59:23.874Z,25.30
2023-03-19T18:01:52.073Z,25.50
2023-03-19T18:04:20.985Z,25.60
2023-03-19T18:06:52.603Z,26.90
2023-03-19T18:09:22.827Z,26.30
2023-03-19T18:11:50.534Z,29.70
2023-03-19T18:14:18.252Z,27.70
2023-03-19T18:16:46.573Z,27.60
2023-03-19T18:19:19.210Z,30.50
2023-03-19T18:21:47.079Z,30.70
2023-03-19T18:24:14.703Z,33.90
2023-03-19T18:26:42.302Z,39.30
2023-03-19T18:29:10.406Z,54.70
2023-03-19T18:31:38.312Z,70.80
2023-03-19T18:34:08.650Z,68.10
2023-03-19T18:36:36.667Z,54.30
2023-03-19T18:39:07.243Z,52.80
2023-03-19T18:41:35.045Z,50.50
2023-03-19T18:44:07.026Z,46.70
2023-03-19T18:46:36.514Z,49.10
2023-03-19T18:49:06.818Z,47.30
2023-03-19T18:51:34.683Z,39.80
2023-03-19T18:54:02.324Z,37.90
2023-03-19T18:56:33.017Z,36.70
2023-03-19T18:59:02.797Z,34.80
2023-03-19T19:01:30.886Z,36.60
2023-03-19T19:03:58.720Z,37.70
2023-03-19T19:06:45.866Z,33.60
2023-03-19T19:09:14.378Z,28.90
2023-03-19T19:11:44.458Z,30.70
2023-03-19T19:14:21.812Z,29.40
2023-03-19T19:16:50.689Z,29.60
2023-03-19T19:19:22.649Z,28.70
2023-03-19T19:21:51.003Z,29.00
2023-03-19T19:24:19.087Z,28.20
2023-03-19T19:26:50.775Z,29.50
2023-03-19T19:29:29.521Z,36.50
2023-03-19T19:31:57.180Z,30.00
2023-03-19T19:34:24.837Z,29.10
2023-03-19T19:36:55.452Z,29.30
2023-03-19T19:39:23.056Z,32.60
2023-03-19T19:41:51.932Z,32.70
2023-03-19T19:44:20.814Z,35.50
2023-03-19T19:46:50.417Z,43.30
2023-03-19T19:49:18.713Z,47.30
2023-03-19T19:51:46.304Z,42.40
2023-03-19T19:54:13.970Z,42.70
2023-03-19T19:56:42.072Z,42.30
2023-03-19T19:59:13.911Z,42.90
2023-03-19T20:01:41.622Z,43.40
2023-03-19T20:04:13.846Z,40.00
2023-03-19T20:06:41.588Z,38.10
2023-03-19T20:09:09.225Z,34.70
2023-03-19T20:11:37.205Z,33.10
2023-03-19T20:14:04.816Z,33.20
2023-03-19T20:16:32.436Z,40.40
2023-03-19T20:19:00.499Z,35.10
2023-03-19T20:21:29.518Z,35.10
2023-03-19T20:23:58.966Z,30.10
2023-03-19T20:26:27.087Z,31.80
2023-03-19T20:28:54.752Z,30.80
2023-03-19T20:31:29.721Z,31.20
2023-03-19T20:33:57.721Z,31.50
2023-03-19T20:36:26.681Z,32.40
2023-03-19T20:38:54.441Z,31.70
2023-03-19T20:41:24.748Z,31.30
2023-03-19T20:43:53.009Z,29.30
2023-03-19T20:46:21.686Z,29.50
2023-03-19T20:48:49.438Z,31.20
2023-03-19T20:51:19.811Z,31.30
2023-03-19T20:53:49.652Z,29.60
2023-03-19T20:56:20.657Z,29.50
2023-03-19T20:58:48.493Z,36.30
2023-03-19T21:01:17.786Z,30.80
2023-03-19T21:03:45.655Z,35.70
2023-03-19T21:06:17.954Z,41.40
2023-03-19T21:08:48.267Z,46.00
2023-03-19T21:11:33.943Z,40.20
2023-03-19T21:14:01.953Z,38.70
2023-03-19T21:16:32.241Z,42.00
2023-03-19T21:19:00.493Z,44.10
2023-03-19T21:21:34.411Z,42.10
2023-03-19T21:24:05.923Z,42.00
2023-03-19T21:26:38.043Z,41.60
2023-03-19T21:29:08.763Z,42.50
2023-03-19T21:31:36.960Z,40.60
2023-03-19T21:34:04.717Z,41.60
2023-03-19T21:36:32.329Z,42.30
2023-03-19T21:38:59.943Z,40.90
2023-03-19T21:41:35.882Z,42.90
2023-03-19T21:44:11.427Z,42.00
2023-03-19T21:46:39.096Z,44.90
2023-03-19T21:49:11.305Z,48.90
2023-03-19T21:51:38.937Z,142.50
2023-03-19T21:54:06.572Z,152.40
2023-03-19T21:56:37.884Z,131.60
2023-03-19T21:59:16.856Z,88.00
2023-03-19T22:01:44.617Z,77.00
2023-03-19T22:04:12.501Z,81.10
2023-03-19T22:06:40.355Z,73.10
2023-03-19T22:09:08.214Z,89.80
2023-03-19T22:11:37.594Z,82.20
2023-03-19T22:14:12.833Z,63.10
2023-03-19T22:16:40.506Z,54.80
2023-03-19T22:19:15.987Z,56.00
2023-03-19T22:21:43.617Z,74.70
2023-03-19T22:24:11.774Z,72.00
2023-03-19T22:26:41.541Z,43.20
2023-03-19T22:29:16.067Z,41.80
2023-03-19T22:31:43.711Z,88.80
2023-03-19T22:34:16.983Z,113.60
2023-03-19T22:36:44.886Z,100.10
2023-03-19T22:39:12.701Z,77.90
2023-03-19T22:41:45.297Z,54.80
2023-03-19T22:44:29.035Z,39.60
2023-03-19T22:46:58.747Z,32.60
2023-03-19T22:49:27.984Z,26.70
2023-03-19T22:51:56.660Z,24.30
2023-03-19T22:54:26.155Z,37.00
2023-03-19T22:56:53.752Z,42.30
2023-03-19T22:59:21.641Z,24.90
2023-03-19T23:01:49.408Z,22.00
2023-03-19T23:04:23.181Z,19.40
2023-03-19T23:06:52.287Z,18.60
2023-03-19T23:09:35.885Z,16.30
2023-03-19T23:12:04.874Z,16.90
2023-03-19T23:14:32.759Z,16.30
2023-03-19T23:17:06.484Z,16.70
2023-03-19T23:19:35.668Z,17.30
2023-03-19T23:22:05.295Z,17.00
2023-03-19T23:24:33.899Z,16.70
2023-03-19T23:27:02.861Z,17.90
2023-03-19T23:29:36.057Z,18.60
2023-03-19T23:32:04.930Z,19.00
2023-03-19T23:34:39.669Z,21.00
2023-03-19T23:37:14.019Z,23.30
2023-03-19T23:39:42.835Z,22.50
2023-03-19T23:42:22.348Z,21.70
2023-03-19T23:44:58.959Z,21.70
2023-03-19T23:47:28.928Z,21.20
2023-03-19T23:49:57.280Z,21.80
2023-03-19T23:52:24.901Z,21.30
2023-03-19T23:54:52.595Z,23.00
2023-03-19T23:57:21.547Z,23.00
2023-03-19T23:59:51.087Z,22.60
